Time;durP1;ratioP1;P1;durP2;ratioP2;P2;SDS_P1;SDS_P2;PMS_P1;PMS_P2;Temp;Humidity;BMP_temperature;BMP_pressure;BME280_temperature;BME280_humidity;BME280_pressure;Samples;Min_cycle;Max_cycle;Signal;HPM_P1;HPM_P2
2023/05/05 00:01:26;;;;;;;5.97;5.38;;;;;16.90;98585.00;;;;5053217;28;20048;-63
2023/05/05 00:03:52;;;;;;;7.88;5.30;;;;;16.90;98580.00;;;;5053047;28;20565;-63
2023/05/05 00:06:19;;;;;;;6.80;5.63;;;;;16.70;98587.00;;;;5052748;28;20107;-63
2023/05/05 00:08:46;;;;;;;6.03;5.50;;;;;16.60;98582.00;;;;5052954;28;20098;-64
2023/05/05 00:11:12;;;;;;;7.13;5.90;;;;;16.40;98573.00;;;;5054398;28;20397;-63
2023/05/05 00:13:39;;;;;;;7.45;5.90;;;;;16.30;98578.00;;;;5036402;28;20103;-64
2023/05/05 00:16:06;;;;;;;7.18;5.95;;;;;16.20;98573.00;;;;5052958;28;20143;-64
2023/05/05 00:18:32;;;;;;;6.13;5.53;;;;;16.20;98570.00;;;;5055020;28;20041;-63
2023/05/05 00:20:59;;;;;;;6.70;5.88;;;;;16.30;98581.00;;;;5036276;28;20080;-64
2023/05/05 00:23:26;;;;;;;6.93;6.07;;;;;16.30;98587.00;;;;5053131;28;20044;-64
2023/05/05 00:25:52;;;;;;;8.10;5.55;;;;;16.20;98586.00;;;;5054289;28;20068;-64
2023/05/05 00:28:19;;;;;;;8.20;5.80;;;;;16.10;98582.00;;;;5053987;28;20049;-63
2023/05/05 00:30:46;;;;;;;8.75;6.25;;;;;16.00;98576.00;;;;5036047;28;20048;-64
2023/05/05 00:33:12;;;;;;;6.97;5.95;;;;;16.00;98571.00;;;;5054394;28;20643;-64
2023/05/05 00:35:39;;;;;;;6.85;6.25;;;;;16.00;98578.00;;;;5054246;28;20045;-64
2023/05/05 00:38:06;;;;;;;7.43;5.97;;;;;15.90;98570.00;;;;5052649;28;20110;-64
2023/05/05 00:40:32;;;;;;;10.00;6.50;;;;;15.90;98580.00;;;;5052447;28;20041;-64
2023/05/05 00:42:59;;;;;;;6.90;6.07;;;;;16.10;98574.00;;;;5035869;28;20524;-63
2023/05/05 00:45:26;;;;;;;7.68;5.70;;;;;16.10;98577.00;;;;5055381;28;20041;-66
2023/05/05 00:47:57;;;;;;;7.72;6.65;;;;;16.10;98583.00;;;;5056256;28;20049;-65
2023/05/05 00:50:28;;;;;;;7.57;6.07;;;;;16.20;98579.00;;;;5055949;28;20139;-66
2023/05/05 00:53:00;;;;;;;10.52;6.00;;;;;16.20;98576.00;;;;5056704;28;20071;-65
2023/05/05 00:55:28;;;;;;;6.22;5.63;;;;;16.10;98570.00;;;;5055142;28;20065;-65
2023/05/05 00:57:56;;;;;;;6.47;5.70;;;;;16.10;98582.00;;;;5054370;28;20575;-65
2023/05/05 01:00:23;;;;;;;6.43;5.82;;;;;16.20;98584.00;;;;5055821;28;20490;-66
2023/05/05 01:02:51;;;;;;;6.50;5.80;;;;;16.30;98586.00;;;;5056817;28;20040;-66
2023/05/05 01:05:19;;;;;;;7.05;6.32;;;;;16.30;98585.00;;;;5038458;28;20055;-66
2023/05/05 01:07:59;;;;;;;6.43;5.82;;;;;16.30;98591.00;;;;5057012;28;20044;-66
2023/05/05 01:10:37;;;;;;;9.02;6.07;;;;;16.30;98585.00;;;;5055052;28;20174;-65
2023/05/05 01:13:15;;;;;;;6.72;5.68;;;;;16.40;98586.00;;;;5056744;28;20045;-66
2023/05/05 01:15:47;;;;;;;6.95;5.30;;;;;16.40;98587.00;;;;5038758;28;20053;-66
2023/05/05 01:18:31;;;;;;;7.20;5.43;;;;;16.30;98570.00;;;;5055227;28;20456;-66
2023/05/05 01:21:07;;;;;;;8.00;6.03;;;;;16.30;98570.00;;;;5039246;28;20049;-66
2023/05/05 01:24:12;;;;;;;7.25;6.20;;;;;16.10;98571.00;;;;5056249;28;20528;-65
2023/05/05 01:26:59;;;;;;;7.35;6.00;;;;;16.00;98579.00;;;;5055796;28;20048;-66
2023/05/05 01:30:00;;;;;;;7.95;6.28;;;;;16.20;98583.00;;;;5053602;28;20041;-64
2023/05/05 01:32:31;;;;;;;12.02;6.30;;;;;16.30;98581.00;;;;5052630;28;20061;-64
2023/05/05 01:35:08;;;;;;;7.55;5.65;;;;;16.20;98574.00;;;;5051371;28;20037;-62
2023/05/05 01:38:04;;;;;;;6.20;5.60;;;;;16.00;98577.00;;;;5051530;28;20127;-62
2023/05/05 01:40:37;;;;;;;6.65;5.90;;;;;16.00;98583.00;;;;5051122;28;20045;-62
2023/05/05 01:43:06;;;;;;;12.18;6.32;;;;;16.00;98582.00;;;;5034754;28;20045;-63
2023/05/05 01:45:37;;;;;;;6.78;5.95;;;;;16.00;98581.00;;;;5051090;28;20209;-62
2023/05/05 01:48:06;;;;;;;8.13;6.15;;;;;16.00;98592.00;;;;5050960;28;20045;-62
2023/05/05 01:50:34;;;;;;;6.68;5.97;;;;;16.00;98595.00;;;;5052360;28;20056;-63
2023/05/05 01:53:02;;;;;;;6.57;5.88;;;;;16.10;98585.00;;;;5052082;28;20044;-62
2023/05/05 01:55:31;;;;;;;9.10;6.07;;;;;16.20;98587.00;;;;5054628;28;20385;-62
2023/05/05 01:57:58;;;;;;;7.00;5.97;;;;;16.10;98587.00;;;;5053429;28;20107;-62
2023/05/05 02:00:26;;;;;;;6.53;5.85;;;;;16.10;98587.00;;;;5051371;28;20147;-63
2023/05/05 02:02:58;;;;;;;6.55;5.95;;;;;16.10;98583.00;;;;5052101;28;20404;-63
2023/05/05 02:05:25;;;;;;;10.88;5.78;;;;;16.10;98591.00;;;;5051614;28;20115;-62
2023/05/05 02:07:56;;;;;;;7.93;5.90;;;;;16.00;98595.00;;;;5052351;28;20049;-62
2023/05/05 02:10:23;;;;;;;8.82;6.78;;;;;15.90;98593.00;;;;5053376;28;20417;-63
2023/05/05 02:12:51;;;;;;;12.70;6.07;;;;;15.70;98585.00;;;;5053354;28;20525;-63
2023/05/05 02:15:20;;;;;;;6.75;6.05;;;;;15.70;98589.00;;;;5052790;28;20059;-63
2023/05/05 02:17:50;;;;;;;7.18;5.95;;;;;15.70;98593.00;;;;5051910;28;20041;-62
2023/05/05 02:20:18;;;;;;;8.70;6.25;;;;;15.70;98597.00;;;;5051278;28;20045;-64
2023/05/05 02:22:45;;;;;;;6.97;6.28;;;;;15.80;98591.00;;;;5051155;28;20045;-63
2023/05/05 02:25:12;;;;;;;8.30;6.45;;;;;15.70;98597.00;;;;5051896;28;20044;-63
2023/05/05 02:27:41;;;;;;;7.45;6.63;;;;;15.60;98603.00;;;;5052892;28;20055;-64
2023/05/05 02:30:12;;;;;;;8.77;6.57;;;;;15.60;98603.00;;;;5034297;28;20409;-64
2023/05/05 02:32:46;;;;;;;6.55;5.85;;;;;15.70;98602.00;;;;5052758;28;20098;-63
2023/05/05 02:35:19;;;;;;;9.55;6.93;;;;;15.70;98600.00;;;;5050507;28;20282;-63
2023/05/05 02:37:50;;;;;;;8.88;6.45;;;;;15.70;98600.00;;;;5050624;28;20133;-64
2023/05/05 02:40:23;;;;;;;7.35;6.40;;;;;15.60;98598.00;;;;5034115;28;20049;-63
2023/05/05 02:42:53;;;;;;;7.38;6.32;;;;;15.50;98607.00;;;;5050747;28;20405;-63
2023/05/05 02:45:26;;;;;;;7.35;6.65;;;;;15.30;98609.00;;;;5052145;28;20045;-63
2023/05/05 02:47:52;;;;;;;6.78;6.07;;;;;15.20;98608.00;;;;5052007;28;20060;-64
2023/05/05 02:50:20;;;;;;;7.30;6.60;;;;;15.20;98607.00;;;;5051010;28;20045;-64
2023/05/05 02:53:00;;;;;;;8.48;6.57;;;;;15.10;98620.00;;;;5055366;28;20067;-64
2023/05/05 02:55:50;;;;;;;12.10;8.45;;;;;15.00;98609.00;;;;5055179;28;20049;-64
2023/05/05 02:58:29;;;;;;;7.50;6.57;;;;;14.90;98617.00;;;;5055445;28;20063;-64
2023/05/05 03:01:04;;;;;;;8.85;7.00;;;;;14.90;98618.00;;;;5056542;28;20103;-64
2023/05/05 03:03:45;;;;;;;9.52;7.32;;;;;15.00;98617.00;;;;5057785;28;20070;-64
2023/05/05 03:06:18;;;;;;;11.73;7.00;;;;;14.90;98622.00;;;;5055122;28;20044;-64
2023/05/05 03:09:30;;;;;;;12.93;7.70;;;;;14.90;98624.00;;;;5054826;28;20570;-62
2023/05/05 03:12:04;;;;;;;9.10;6.97;;;;;15.00;98627.00;;;;5020120;28;20060;-63
2023/05/05 03:14:42;;;;;;;7.97;6.97;;;;;15.00;98622.00;;;;5055350;28;20130;-64
2023/05/05 03:17:13;;;;;;;9.88;7.85;;;;;15.00;98615.00;;;;5055632;28;20107;-64
2023/05/05 03:19:41;;;;;;;9.55;7.55;;;;;14.90;98613.00;;;;5065190;28;20057;-63
2023/05/05 03:22:08;;;;;;;9.35;7.38;;;;;14.90;98604.00;;;;5069916;28;20071;-64
2023/05/05 03:24:38;;;;;;;8.48;7.68;;;;;14.80;98596.00;;;;5063220;28;20041;-64
2023/05/05 03:27:08;;;;;;;10.30;7.50;;;;;14.60;98596.00;;;;5056096;28;20045;-65
2023/05/05 03:29:37;;;;;;;9.00;7.93;;;;;14.60;98608.00;;;;5055159;28;20045;-64
2023/05/05 03:32:08;;;;;;;11.68;7.53;;;;;14.80;98609.00;;;;5055875;28;20041;-64
2023/05/05 03:34:36;;;;;;;8.45;6.78;;;;;15.00;98613.00;;;;5038573;28;20045;-64
2023/05/05 03:37:04;;;;;;;8.82;6.90;;;;;15.00;98614.00;;;;5054883;28;20065;-64
2023/05/05 03:39:31;;;;;;;10.13;7.78;;;;;14.90;98618.00;;;;5054373;28;20049;-63
2023/05/05 03:41:58;;;;;;;12.55;8.07;;;;;14.80;98613.00;;;;5056020;28;20437;-64
2023/05/05 03:44:29;;;;;;;8.30;7.18;;;;;14.70;98612.00;;;;5038056;28;20390;-64
2023/05/05 03:46:56;;;;;;;7.85;6.70;;;;;14.60;98612.00;;;;5055297;28;20041;-64
2023/05/05 03:49:23;;;;;;;9.25;7.05;;;;;14.60;98619.00;;;;5053654;28;20052;-64
2023/05/05 03:51:51;;;;;;;8.82;7.60;;;;;14.70;98617.00;;;;5053952;28;20076;-64
2023/05/05 03:54:17;;;;;;;8.63;7.40;;;;;14.60;98611.00;;;;5053807;28;20111;-64
2023/05/05 03:56:44;;;;;;;8.70;7.13;;;;;14.60;98608.00;;;;5053869;28;20052;-64
2023/05/05 03:59:11;;;;;;;10.85;7.60;;;;;14.70;98619.00;;;;5053504;28;20469;-65
2023/05/05 04:01:37;;;;;;;8.85;7.28;;;;;14.70;98619.00;;;;5053303;28;20477;-64
2023/05/05 04:04:04;;;;;;;8.30;7.47;;;;;14.70;98629.00;;;;5053667;28;20049;-64
2023/05/05 04:06:30;;;;;;;8.65;7.50;;;;;14.70;98620.00;;;;5054084;28;20095;-64
2023/05/05 04:08:57;;;;;;;9.32;7.15;;;;;14.80;98614.00;;;;5055273;28;20095;-64
2023/05/05 04:11:25;;;;;;;8.32;7.47;;;;;14.90;98630.00;;;;5053804;28;20133;-64
2023/05/05 04:13:52;;;;;;;9.32;8.30;;;;;14.90;98630.00;;;;5053075;28;20406;-64
2023/05/05 04:16:19;;;;;;;10.73;7.82;;;;;14.80;98625.00;;;;5052922;28;20498;-64
2023/05/05 04:18:46;;;;;;;10.77;7.93;;;;;14.80;98626.00;;;;5052415;28;20040;-64
2023/05/05 04:21:13;;;;;;;13.25;9.55;;;;;14.90;98628.00;;;;5052822;28;20052;-64
2023/05/05 04:23:40;;;;;;;11.65;7.85;;;;;14.90;98620.00;;;;5036420;28;20587;-64
2023/05/05 04:26:06;;;;;;;11.50;7.75;;;;;14.90;98629.00;;;;5054427;28;20048;-65
2023/05/05 04:28:33;;;;;;;10.35;8.48;;;;;14.90;98622.00;;;;5036179;28;20051;-64
2023/05/05 04:31:01;;;;;;;11.45;8.65;;;;;14.90;98624.00;;;;5053023;28;20150;-64
2023/05/05 04:33:30;;;;;;;11.13;8.38;;;;;14.90;98621.00;;;;5052973;28;20045;-64
2023/05/05 04:35:57;;;;;;;11.05;7.22;;;;;15.00;98623.00;;;;5052877;28;20045;-64
2023/05/05 04:38:24;;;;;;;11.25;8.77;;;;;15.10;98634.00;;;;5053404;28;20045;-64
2023/05/05 04:40:51;;;;;;;13.13;9.85;;;;;15.00;98631.00;;;;5052601;28;20049;-63
2023/05/05 04:43:19;;;;;;;13.65;10.00;;;;;15.10;98638.00;;;;5052641;28;20052;-63
2023/05/05 04:45:55;;;;;;;16.58;8.80;;;;;15.20;98634.00;;;;5052851;28;20079;-63
2023/05/05 04:48:26;;;;;;;10.65;8.25;;;;;15.30;98646.00;;;;5052665;28;20067;-63
2023/05/05 04:50:52;;;;;;;9.10;7.22;;;;;15.40;98648.00;;;;5052343;28;20045;-64
2023/05/05 04:53:19;;;;;;;10.05;7.80;;;;;15.50;98640.00;;;;5053647;28;20043;-63
2023/05/05 04:55:45;;;;;;;8.95;7.07;;;;;15.40;98645.00;;;;5052640;28;20143;-63
2023/05/05 04:58:12;;;;;;;12.05;8.60;;;;;15.20;98635.00;;;;5052472;28;20052;-63
2023/05/05 05:00:38;;;;;;;11.40;8.43;;;;;15.10;98641.00;;;;5052078;28;20048;-64
2023/05/05 05:03:06;;;;;;;13.20;8.10;;;;;15.10;98641.00;;;;5052272;28;20071;-64
2023/05/05 05:05:33;;;;;;;9.38;8.35;;;;;15.30;98637.00;;;;5052157;28;20048;-65
2023/05/05 05:08:00;;;;;;;11.13;9.57;;;;;15.40;98642.00;;;;5052194;28;20052;-64
2023/05/05 05:10:27;;;;;;;12.82;8.05;;;;;15.40;98649.00;;;;5052145;28;20135;-64
2023/05/05 05:12:53;;;;;;;12.35;8.40;;;;;15.40;98642.00;;;;5051996;28;20052;-62
2023/05/05 05:15:20;;;;;;;14.68;8.68;;;;;15.50;98644.00;;;;5052028;28;20087;-64
2023/05/05 05:17:46;;;;;;;9.70;8.70;;;;;15.50;98643.00;;;;5052001;28;20041;-64
2023/05/05 05:20:13;;;;;;;12.93;8.15;;;;;15.60;98652.00;;;;5052201;28;20073;-64
2023/05/05 05:22:41;;;;;;;9.43;7.82;;;;;15.80;98649.00;;;;5053223;28;20099;-63
2023/05/05 05:25:11;;;;;;;12.10;8.38;;;;;15.90;98661.00;;;;5035893;28;20045;-63
2023/05/05 05:27:38;;;;;;;12.63;8.82;;;;;16.10;98662.00;;;;5052220;28;20045;-64
2023/05/05 05:30:06;;;;;;;12.02;9.05;;;;;16.30;98672.00;;;;5035360;28;20128;-64
2023/05/05 05:32:33;;;;;;;10.63;8.63;;;;;16.40;98671.00;;;;5051862;28;20060;-63
2023/05/05 05:35:00;;;;;;;10.65;8.43;;;;;16.50;98677.00;;;;5051624;28;20102;-63
2023/05/05 05:37:30;;;;;;;13.15;9.55;;;;;16.70;98676.00;;;;5052068;28;20076;-63
2023/05/05 05:39:57;;;;;;;11.63;9.18;;;;;16.90;98672.00;;;;5051559;28;20048;-65
2023/05/05 05:42:26;;;;;;;11.90;9.23;;;;;17.00;98682.00;;;;5035473;28;20049;-64
2023/05/05 05:44:52;;;;;;;19.70;15.73;;;;;17.10;98682.00;;;;5052952;28;20043;-63
2023/05/05 05:47:19;;;;;;;16.02;10.07;;;;;17.30;98684.00;;;;5051309;28;20498;-64
2023/05/05 05:49:46;;;;;;;13.15;8.85;;;;;17.40;98676.00;;;;5050816;28;20048;-64
2023/05/05 05:52:12;;;;;;;13.00;9.52;;;;;17.40;98683.00;;;;5051270;28;20095;-64
2023/05/05 05:54:39;;;;;;;13.40;9.38;;;;;17.60;98697.00;;;;5051114;28;20049;-64
2023/05/05 05:57:07;;;;;;;12.25;9.50;;;;;17.70;98688.00;;;;5034924;28;20099;-64
2023/05/05 05:59:34;;;;;;;12.68;8.88;;;;;17.70;98686.00;;;;5035233;28;20107;-64
2023/05/05 06:02:01;;;;;;;17.13;9.80;;;;;17.80;98684.00;;;;5051530;28;20052;-64
2023/05/05 06:04:28;;;;;;;15.05;8.93;;;;;18.00;98692.00;;;;5050904;28;20053;-64
2023/05/05 06:06:54;;;;;;;11.88;8.55;;;;;18.10;98685.00;;;;5050535;28;20036;-63
2023/05/05 06:09:21;;;;;;;15.05;9.73;;;;;18.30;98690.00;;;;5050609;28;20098;-63
2023/05/05 06:11:48;;;;;;;16.02;9.00;;;;;18.50;98690.00;;;;5034978;28;20387;-63
2023/05/05 06:14:15;;;;;;;14.75;8.07;;;;;18.70;98680.00;;;;5034042;28;20520;-63
2023/05/05 06:16:43;;;;;;;16.33;7.50;;;;;18.70;98692.00;;;;5050844;28;20045;-63
2023/05/05 06:19:14;;;;;;;10.98;7.50;;;;;18.90;98684.00;;;;5034815;28;20043;-62
2023/05/05 06:21:42;;;;;;;10.88;6.78;;;;;19.10;98686.00;;;;5050669;28;20049;-63
2023/05/05 06:24:09;;;;;;;10.75;5.80;;;;;19.30;98689.00;;;;5050786;28;20045;-64
2023/05/05 06:26:35;;;;;;;7.07;4.18;;;;;19.50;98686.00;;;;5051767;28;20045;-64
2023/05/05 06:29:02;;;;;;;5.03;3.70;;;;;19.70;98687.00;;;;5050754;28;20410;-64
2023/05/05 06:31:29;;;;;;;5.32;3.55;;;;;19.80;98687.00;;;;5051439;28;20055;-63
2023/05/05 06:33:55;;;;;;;4.82;3.58;;;;;20.10;98682.00;;;;5051204;28;20056;-63
2023/05/05 06:36:22;;;;;;;4.32;3.90;;;;;20.10;98693.00;;;;5051717;28;20049;-64
2023/05/05 06:38:49;;;;;;;4.15;3.03;;;;;20.20;98690.00;;;;5051469;28;20048;-64
2023/05/05 06:41:16;;;;;;;5.80;3.72;;;;;20.20;98698.00;;;;5051736;28;20041;-63
2023/05/05 06:43:43;;;;;;;4.78;3.50;;;;;20.20;98692.00;;;;5051123;28;20505;-64
2023/05/05 06:46:12;;;;;;;3.78;3.00;;;;;20.30;98697.00;;;;5034964;28;20052;-65
2023/05/05 06:48:38;;;;;;;3.72;2.97;;;;;20.30;98688.00;;;;5051794;28;20049;-63
2023/05/05 06:51:05;;;;;;;4.35;3.30;;;;;20.30;98689.00;;;;5051971;28;20469;-64
2023/05/05 06:53:32;;;;;;;4.78;3.10;;;;;20.30;98695.00;;;;5053369;28;20052;-63
2023/05/05 06:55:58;;;;;;;4.28;3.40;;;;;20.30;98681.00;;;;5051616;28;20049;-64
2023/05/05 06:58:25;;;;;;;5.63;3.88;;;;;20.30;98694.00;;;;5053680;28;20128;-63
2023/05/05 07:00:52;;;;;;;6.03;3.63;;;;;20.30;98688.00;;;;5052261;28;20053;-64
2023/05/05 07:03:19;;;;;;;5.07;3.88;;;;;20.40;98683.00;;;;5052256;28;20079;-66
2023/05/05 07:05:46;;;;;;;7.30;4.60;;;;;20.50;98684.00;;;;5051760;28;20049;-62
2023/05/05 07:08:12;;;;;;;4.00;3.60;;;;;20.60;98687.00;;;;5052610;28;20041;-63
2023/05/05 07:10:39;;;;;;;5.25;3.22;;;;;20.70;98683.00;;;;5051556;28;20045;-64
2023/05/05 07:13:09;;;;;;;5.53;3.30;;;;;20.70;98682.00;;;;5052799;28;20048;-64
2023/05/05 07:15:36;;;;;;;4.15;3.17;;;;;20.70;98683.00;;;;5052785;28;20059;-64
2023/05/05 07:18:03;;;;;;;4.80;3.25;;;;;20.70;98683.00;;;;5051750;28;20057;-64
2023/05/05 07:20:30;;;;;;;11.15;3.03;;;;;20.60;98694.00;;;;5051328;28;20498;-64
2023/05/05 07:22:56;;;;;;;7.28;3.58;;;;;20.70;98692.00;;;;5055917;28;20025;-63
2023/05/05 07:25:23;;;;;;;4.75;3.40;;;;;20.70;98683.00;;;;5070743;28;20043;-63
2023/05/05 07:27:50;;;;;;;4.93;3.65;;;;;20.70;98686.00;;;;5049011;28;20053;-63
2023/05/05 07:30:16;;;;;;;5.22;3.60;;;;;20.70;98687.00;;;;5051319;28;20049;-63
2023/05/05 07:32:45;;;;;;;4.93;3.45;;;;;20.80;98685.00;;;;5051207;28;20057;-62
2023/05/05 07:35:12;;;;;;;5.40;3.50;;;;;20.80;98691.00;;;;5034215;28;20064;-63
2023/05/05 07:37:38;;;;;;;7.32;3.25;;;;;20.80;98693.00;;;;5053547;28;20045;-65
2023/05/05 07:40:05;;;;;;;7.43;3.45;;;;;20.90;98693.00;;;;5054270;28;20068;-65
2023/05/05 07:42:32;;;;;;;3.83;3.17;;;;;21.00;98699.00;;;;5053917;28;20049;-65
2023/05/05 07:44:59;;;;;;;4.32;2.63;;;;;21.00;98696.00;;;;5055227;28;20067;-64
2023/05/05 07:47:26;;;;;;;4.47;2.88;;;;;21.10;98696.00;;;;5053523;28;20053;-63
2023/05/05 07:49:53;;;;;;;5.05;2.70;;;;;21.20;98693.00;;;;5054746;28;20045;-63
2023/05/05 07:52:19;;;;;;;3.25;2.95;;;;;21.30;98695.00;;;;5053312;28;20033;-63
2023/05/05 07:55:03;;;;;;;2.95;2.65;;;;;21.20;98689.00;;;;5057045;28;20067;-64
2023/05/05 07:57:29;;;;;;;4.65;2.90;;;;;21.40;98695.00;;;;5063484;28;20047;-63
2023/05/05 07:59:56;;;;;;;4.88;3.80;;;;;21.50;98693.00;;;;5062878;28;20399;-63
2023/05/05 08:02:23;;;;;;;2.58;2.38;;;;;21.60;98694.00;;;;5063627;28;20055;-64
2023/05/05 08:04:49;;;;;;;3.15;2.25;;;;;21.70;98688.00;;;;5069487;28;20051;-62
2023/05/05 08:07:16;;;;;;;3.28;2.80;;;;;21.70;98689.00;;;;5069189;28;20068;-63
2023/05/05 08:09:42;;;;;;;8.95;2.38;;;;;21.90;98686.00;;;;5070572;28;20101;-65
2023/05/05 08:12:11;;;;;;;2.63;1.63;;;;;22.00;98685.00;;;;5053911;28;20064;-64
2023/05/05 08:14:39;;;;;;;6.72;1.88;;;;;22.00;98683.00;;;;5069247;28;20053;-63
2023/05/05 08:17:05;;;;;;;3.47;1.90;;;;;22.20;98684.00;;;;5050371;28;20060;-66
2023/05/05 08:19:32;;;;;;;2.17;1.42;;;;;22.30;98682.00;;;;5060630;28;20049;-64
2023/05/05 08:21:59;;;;;;;5.57;1.60;;;;;22.40;98686.00;;;;5046652;28;20079;-63
2023/05/05 08:24:27;;;;;;;2.75;1.90;;;;;22.50;98690.00;;;;5072964;28;20045;-63
2023/05/05 08:26:54;;;;;;;2.97;1.90;;;;;22.60;98686.00;;;;5070949;28;20144;-63
2023/05/05 08:29:21;;;;;;;3.83;1.85;;;;;22.60;98682.00;;;;5066195;28;20143;-63
2023/05/05 08:31:48;;;;;;;2.95;1.42;;;;;22.70;98690.00;;;;5065380;28;20563;-64
2023/05/05 08:34:15;;;;;;;2.83;1.63;;;;;22.80;98688.00;;;;5066723;28;20055;-62
2023/05/05 08:36:41;;;;;;;2.25;1.38;;;;;23.00;98688.00;;;;5065118;28;20420;-63
2023/05/05 08:39:08;;;;;;;2.95;1.45;;;;;23.20;98688.00;;;;5053854;28;20075;-64
2023/05/05 08:41:34;;;;;;;2.40;1.30;;;;;23.30;98689.00;;;;5052847;28;20414;-63
2023/05/05 08:44:04;;;;;;;1.85;1.30;;;;;23.30;98682.00;;;;5036212;28;20045;-63
2023/05/05 08:46:31;;;;;;;2.63;1.20;;;;;23.40;98687.00;;;;5053227;28;20048;-63
2023/05/05 08:48:58;;;;;;;2.53;1.52;;;;;23.40;98677.00;;;;5053840;28;20068;-64
2023/05/05 08:51:30;;;;;;;2.53;1.15;;;;;23.40;98679.00;;;;5053501;28;20063;-63
2023/05/05 08:54:01;;;;;;;3.28;1.42;;;;;23.50;98672.00;;;;5037540;28;20041;-63
2023/05/05 08:56:38;;;;;;;3.05;1.40;;;;;23.70;98668.00;;;;5037087;28;20045;-63
2023/05/05 08:59:05;;;;;;;4.25;1.15;;;;;23.70;98672.00;;;;5036858;28;20064;-63
2023/05/05 09:01:32;;;;;;;4.05;1.10;;;;;23.70;98673.00;;;;5054340;28;20102;-62
2023/05/05 09:03:59;;;;;;;2.10;1.90;;;;;23.70;98671.00;;;;5052813;28;20079;-62
2023/05/05 09:06:26;;;;;;;2.75;1.30;;;;;23.70;98673.00;;;;5054434;28;20041;-62
2023/05/05 09:08:53;;;;;;;3.85;1.48;;;;;23.70;98679.00;;;;5053864;28;20116;-63
2023/05/05 09:11:21;;;;;;;2.58;1.30;;;;;23.80;98663.00;;;;5053770;28;20124;-62
2023/05/05 09:13:48;;;;;;;1.85;1.50;;;;;23.80;98672.00;;;;5053392;28;20095;-62
2023/05/05 09:16:15;;;;;;;4.55;1.30;;;;;23.90;98672.00;;;;5053402;28;20506;-63
2023/05/05 09:18:41;;;;;;;1.83;1.20;;;;;23.80;98664.00;;;;5053961;28;20102;-63
2023/05/05 09:21:23;;;;;;;2.88;1.55;;;;;23.90;98674.00;;;;5053856;28;20084;-63
2023/05/05 09:24:22;;;;;;;2.15;1.70;;;;;23.80;98678.00;;;;5052303;28;20563;-63
2023/05/05 09:26:49;;;;;;;4.25;1.20;;;;;23.80;98675.00;;;;5031439;28;20403;-64
2023/05/05 09:29:19;;;;;;;1.88;1.10;;;;;23.90;98671.00;;;;5031622;28;20057;-63
2023/05/05 09:32:10;;;;;;;2.58;1.52;;;;;24.00;98680.00;;;;5031978;28;20053;-64
2023/05/05 09:34:36;;;;;;;4.32;1.30;;;;;23.90;98672.00;;;;5031767;28;20456;-63
2023/05/05 09:37:04;;;;;;;2.92;1.30;;;;;24.00;98676.00;;;;5033129;28;20042;-63
2023/05/05 09:39:31;;;;;;;2.03;1.02;;;;;23.90;98679.00;;;;5031741;28;20128;-63
2023/05/05 09:41:58;;;;;;;1.50;0.98;;;;;23.80;98671.00;;;;5031853;28;20057;-62
2023/05/05 09:44:35;;;;;;;3.15;1.00;;;;;23.80;98673.00;;;;5032189;28;20045;-62
2023/05/05 09:47:02;;;;;;;1.90;1.25;;;;;23.90;98679.00;;;;5033341;28;20045;-63
2023/05/05 09:49:37;;;;;;;2.58;1.48;;;;;23.90;98677.00;;;;5031769;28;20490;-63
2023/05/05 09:52:14;;;;;;;2.40;1.27;;;;;24.00;98670.00;;;;5032451;28;20481;-63
2023/05/05 09:54:44;;;;;;;1.60;1.50;;;;;24.20;98665.00;;;;5032224;28;20041;-63
2023/05/05 09:57:28;;;;;;;4.70;1.23;;;;;24.30;98675.00;;;;5032446;28;20078;-62
2023/05/05 09:59:56;;;;;;;3.45;1.10;;;;;24.30;98672.00;;;;5033710;28;20057;-63
2023/05/05 10:02:34;;;;;;;1.98;1.10;;;;;24.30;98671.00;;;;5032586;28;20041;-63
2023/05/05 10:05:20;;;;;;;2.35;1.40;;;;;24.40;98669.00;;;;5033467;28;20140;-63
2023/05/05 10:07:47;;;;;;;2.60;0.88;;;;;24.50;98662.00;;;;5033779;28;20053;-65
2023/05/05 10:10:16;;;;;;;3.28;1.50;;;;;24.40;98667.00;;;;5033047;28;20521;-62
2023/05/05 10:12:45;;;;;;;0.82;0.82;;;;;24.60;98668.00;;;;5032385;28;20037;-63
2023/05/05 10:15:14;;;;;;;0.85;0.80;;;;;24.70;98662.00;;;;5032493;28;20214;-64
2023/05/05 10:17:48;;;;;;;1.98;0.73;;;;;24.80;98664.00;;;;5031615;28;20659;-63
2023/05/05 10:20:18;;;;;;;2.33;1.00;;;;;24.80;98666.00;;;;5032702;28;20041;-64
2023/05/05 10:22:52;;;;;;;1.15;0.90;;;;;24.80;98670.00;;;;5031235;28;20041;-64
2023/05/05 10:25:30;;;;;;;3.97;1.05;;;;;24.90;98666.00;;;;5033820;28;20065;-64
2023/05/05 10:27:58;;;;;;;2.58;1.13;;;;;25.00;98667.00;;;;5033343;28;20045;-64
2023/05/05 10:30:29;;;;;;;2.03;1.00;;;;;25.00;98662.00;;;;5033014;28;20056;-64
2023/05/05 10:33:12;;;;;;;2.22;1.10;;;;;25.20;98668.00;;;;5032028;28;20052;-64
2023/05/05 10:36:01;;;;;;;2.15;1.00;;;;;25.30;98666.00;;;;5031471;28;20073;-62
2023/05/05 10:38:29;;;;;;;1.60;0.95;;;;;25.30;98668.00;;;;5031523;28;20180;-63
2023/05/05 10:40:58;;;;;;;2.60;0.93;;;;;25.20;98671.00;;;;5030839;28;20050;-65
2023/05/05 10:43:27;;;;;;;3.25;1.40;;;;;25.20;98657.00;;;;5032080;28;20103;-65
2023/05/05 10:45:54;;;;;;;1.80;0.90;;;;;25.30;98656.00;;;;5032135;28;20107;-65
2023/05/05 10:48:33;;;;;;;4.63;0.95;;;;;25.30;98653.00;;;;5034650;28;20119;-66
2023/05/05 10:51:30;;;;;;;3.75;1.02;;;;;25.30;98654.00;;;;5035612;28;20048;-66
2023/05/05 10:54:18;;;;;;;1.20;0.80;;;;;25.30;98651.00;;;;5032821;28;20048;-65
2023/05/05 10:56:45;;;;;;;1.85;1.02;;;;;25.30;98647.00;;;;5033465;28;20513;-66
2023/05/05 10:59:37;;;;;;;3.17;1.40;;;;;25.40;98647.00;;;;5032962;28;20053;-65
2023/05/05 11:02:20;;;;;;;1.80;1.15;;;;;25.30;98640.00;;;;5033458;28;20379;-65
2023/05/05 11:05:22;;;;;;;4.28;1.05;;;;;25.30;98637.00;;;;5035909;28;20071;-63
2023/05/05 11:07:50;;;;;;;5.63;1.40;;;;;25.20;98638.00;;;;5014341;28;20053;-65
2023/05/05 11:10:19;;;;;;;1.58;1.08;;;;;25.10;98635.00;;;;5033115;28;20054;-65
2023/05/05 11:12:56;;;;;;;1.45;0.93;;;;;24.90;98626.00;;;;5056839;28;20490;-65
2023/05/05 11:15:26;;;;;;;2.53;1.30;;;;;24.80;98631.00;;;;5043743;28;20060;-65
2023/05/05 11:17:56;;;;;;;1.60;1.10;;;;;24.80;98636.00;;;;5045424;28;20053;-66
2023/05/05 11:20:35;;;;;;;2.47;1.20;;;;;24.80;98629.00;;;;5036623;28;20042;-65
2023/05/05 11:23:02;;;;;;;1.00;0.88;;;;;24.80;98620.00;;;;5036458;28;20045;-66
2023/05/05 11:25:40;;;;;;;2.92;1.10;;;;;24.80;98621.00;;;;5036609;28;20080;-66
2023/05/05 11:28:08;;;;;;;1.83;0.85;;;;;24.90;98623.00;;;;5048246;28;20072;-66
2023/05/05 11:30:55;;;;;;;1.20;0.80;;;;;25.00;98618.00;;;;5046881;28;20060;-67
2023/05/05 11:33:29;;;;;;;1.58;1.30;;;;;25.10;98615.00;;;;5036250;28;20050;-66
2023/05/05 11:36:02;;;;;;;2.70;1.10;;;;;25.20;98615.00;;;;5036084;28;20053;-66
2023/05/05 11:38:55;;;;;;;4.82;1.88;;;;;25.20;98617.00;;;;5035696;28;20280;-67
2023/05/05 11:41:33;;;;;;;2.13;1.38;;;;;25.20;98615.00;;;;5036099;28;20431;-67
2023/05/05 11:44:09;;;;;;;2.33;1.20;;;;;25.40;98608.00;;;;5034334;28;20406;-67
2023/05/05 11:46:35;;;;;;;1.30;1.20;;;;;25.40;98613.00;;;;5035581;28;20092;-67
2023/05/05 11:49:02;;;;;;;2.22;0.70;;;;;25.50;98605.00;;;;5033830;28;20058;-67
2023/05/05 11:51:30;;;;;;;9.90;1.30;;;;;25.60;98597.00;;;;5035088;28;20041;-66
2023/05/05 11:53:56;;;;;;;2.38;1.00;;;;;25.70;98605.00;;;;5035163;28;20041;-66
2023/05/05 11:56:24;;;;;;;3.85;1.55;;;;;25.90;98608.00;;;;5035829;28;20060;-67
2023/05/05 11:59:20;;;;;;;3.83;1.67;;;;;25.80;98605.00;;;;5035542;28;20038;-67
2023/05/05 12:01:47;;;;;;;2.60;1.10;;;;;25.70;98600.00;;;;5030567;28;20449;-67
2023/05/05 12:04:15;;;;;;;3.78;1.35;;;;;25.90;98595.00;;;;5033955;28;20045;-66
2023/05/05 12:06:42;;;;;;;3.30;1.58;;;;;26.10;98595.00;;;;5034100;28;20467;-66
2023/05/05 12:09:16;;;;;;;2.42;1.48;;;;;26.30;98578.00;;;;5033511;28;20076;-65
2023/05/05 12:11:56;;;;;;;2.15;1.10;;;;;26.50;98588.00;;;;5033644;28;20054;-67
2023/05/05 12:14:24;;;;;;;2.58;1.30;;;;;26.60;98589.00;;;;5033172;28;20058;-66
2023/05/05 12:16:55;;;;;;;3.30;1.30;;;;;26.60;98587.00;;;;5033389;28;20502;-67
2023/05/05 12:19:22;;;;;;;2.85;1.25;;;;;26.60;98585.00;;;;5033913;28;20046;-67
2023/05/05 12:21:48;;;;;;;1.33;0.82;;;;;26.50;98564.00;;;;5034384;28;20108;-66
2023/05/05 12:24:15;;;;;;;3.17;1.17;;;;;26.50;98573.00;;;;5034574;28;20045;-67
2023/05/05 12:26:42;;;;;;;3.45;1.00;;;;;26.40;98562.00;;;;5034533;28;20453;-66
2023/05/05 12:29:09;;;;;;;2.35;1.30;;;;;26.40;98554.00;;;;5049514;28;20056;-66
2023/05/05 12:31:38;;;;;;;2.90;2.00;;;;;26.50;98558.00;;;;5033096;28;20053;-67